createdAt,value
2022-12-22T00:00:29.208Z,30.63
2022-12-22T00:03:15.113Z,30.70
2022-12-22T00:06:00.744Z,36.35
2022-12-22T00:08:46.034Z,33.22
2022-12-22T00:11:31.831Z,30.65
2022-12-22T00:14:17.534Z,30.77
2022-12-22T00:17:02.919Z,32.00
2022-12-22T00:19:48.807Z,30.90
2022-12-22T00:22:39.050Z,32.13
2022-12-22T00:25:24.969Z,37.40
2022-12-22T00:28:10.516Z,39.38
2022-12-22T00:30:56.630Z,31.55
2022-12-22T00:33:41.947Z,30.88
2022-12-22T00:36:31.136Z,31.63
2022-12-22T00:39:19.365Z,31.13
2022-12-22T00:42:05.015Z,31.30
2022-12-22T00:44:50.468Z,30.98
2022-12-22T00:47:43.694Z,30.40
2022-12-22T00:50:29.559Z,30.23
2022-12-22T00:53:15.732Z,30.80
2022-12-22T00:56:01.047Z,33.50
2022-12-22T00:58:46.595Z,34.25
2022-12-22T01:01:32.277Z,32.88
2022-12-22T01:04:17.625Z,33.60
2022-12-22T01:07:03.143Z,30.98
2022-12-22T01:09:48.511Z,32.88
2022-12-22T01:12:39.209Z,35.13
2022-12-22T01:15:37.457Z,32.38
2022-12-22T01:18:23.083Z,31.35
2022-12-22T01:21:09.032Z,32.83
2022-12-22T01:23:54.581Z,33.97
2022-12-22T01:26:40.188Z,30.73
2022-12-22T01:29:25.756Z,30.77
2022-12-22T01:32:11.486Z,31.00
2022-12-22T01:34:57.657Z,31.23
2022-12-22T01:37:42.708Z,29.17
2022-12-22T01:40:33.584Z,29.75
2022-12-22T01:43:18.682Z,29.08
2022-12-22T01:46:04.223Z,29.17
2022-12-22T01:48:50.493Z,29.70
2022-12-22T01:51:44.531Z,30.67
2022-12-22T01:54:31.482Z,29.35
2022-12-22T01:57:16.972Z,29.15
2022-12-22T02:00:02.551Z,28.70
2022-12-22T02:02:50.907Z,28.50
2022-12-22T02:05:38.283Z,29.33
2022-12-22T02:08:36.212Z,28.20
2022-12-22T02:11:42.167Z,26.75
2022-12-22T02:14:49.429Z,28.15
2022-12-22T02:17:56.746Z,27.67
2022-12-22T02:21:02.416Z,28.85
2022-12-22T02:24:14.377Z,27.20
2022-12-22T02:27:09.841Z,27.00
2022-12-22T02:30:17.281Z,26.85
2022-12-22T02:33:09.549Z,26.42
2022-12-22T02:36:08.156Z,25.92
2022-12-22T02:39:02.526Z,26.27
2022-12-22T02:42:13.694Z,27.10
2022-12-22T02:45:14.250Z,26.77
2022-12-22T02:48:22.060Z,26.27
2022-12-22T02:51:18.989Z,27.83
2022-12-22T02:54:05.072Z,26.25
2022-12-22T02:56:50.171Z,27.00
2022-12-22T02:59:35.678Z,28.25
2022-12-22T03:02:21.210Z,26.83
2022-12-22T03:05:06.476Z,29.08
2022-12-22T03:07:52.002Z,28.33
2022-12-22T03:10:37.197Z,28.50
2022-12-22T03:13:22.827Z,28.95
2022-12-22T03:16:07.968Z,30.27
2022-12-22T03:18:53.372Z,28.75
2022-12-22T03:21:38.868Z,30.10
2022-12-22T03:24:24.303Z,30.45
2022-12-22T03:26:51.062Z,29.95
2022-12-22T03:29:17.770Z,30.55
2022-12-22T03:31:44.591Z,30.10
2022-12-22T03:34:11.325Z,30.67
2022-12-22T03:36:38.098Z,29.45
2022-12-22T03:39:04.935Z,32.90
2022-12-22T03:41:49.956Z,31.88
2022-12-22T03:44:35.528Z,30.05
2022-12-22T03:47:02.203Z,29.45
2022-12-22T03:49:28.949Z,30.05
2022-12-22T03:51:55.762Z,31.88
2022-12-22T03:54:25.103Z,32.30
2022-12-22T03:56:53.072Z,31.48
2022-12-22T03:59:20.190Z,31.60
2022-12-22T04:01:53.396Z,33.90
2022-12-22T04:04:22.591Z,35.83
2022-12-22T04:06:49.224Z,34.28
2022-12-22T04:09:16.178Z,35.90
2022-12-22T04:12:01.338Z,35.83
2022-12-22T04:14:33.840Z,34.88
2022-12-22T04:17:02.276Z,32.05
2022-12-22T04:19:29.233Z,36.45
2022-12-22T04:21:55.854Z,33.25
2022-12-22T04:24:22.703Z,33.53
2022-12-22T04:26:50.115Z,30.85
2022-12-22T04:29:16.968Z,31.50
2022-12-22T04:31:43.917Z,31.30
2022-12-22T04:34:10.657Z,30.63
2022-12-22T04:36:37.293Z,31.23
2022-12-22T04:39:04.178Z,30.55
2022-12-22T04:41:30.828Z,31.60
2022-12-22T04:43:57.503Z,31.48
2022-12-22T04:46:24.242Z,29.52
2022-12-22T04:48:56.018Z,30.65
2022-12-22T04:51:26.303Z,31.67
2022-12-22T04:53:53.022Z,30.17
2022-12-22T04:56:19.680Z,30.23
2022-12-22T04:58:46.412Z,31.95
2022-12-22T05:01:15.903Z,31.10
2022-12-22T05:03:43.059Z,31.58
2022-12-22T05:06:10.491Z,30.08
2022-12-22T05:08:37.415Z,30.70
2022-12-22T05:11:04.228Z,30.60
2022-12-22T05:13:32.268Z,30.70
2022-12-22T05:16:25.372Z,31.40
2022-12-22T05:18:52.091Z,31.13
2022-12-22T05:21:22.205Z,30.95
2022-12-22T05:23:49.774Z,29.88
2022-12-22T05:26:17.821Z,30.88
2022-12-22T05:28:46.642Z,29.25
2022-12-22T05:31:22.387Z,30.83
2022-12-22T05:33:50.141Z,31.65
2022-12-22T05:36:17.806Z,31.60
2022-12-22T05:38:44.736Z,31.80
2022-12-22T05:41:11.490Z,30.02
2022-12-22T05:43:38.551Z,31.20
2022-12-22T05:46:08.763Z,31.23
2022-12-22T05:48:39.015Z,30.17
2022-12-22T05:51:07.641Z,29.65
2022-12-22T05:53:34.303Z,28.55
2022-12-22T05:56:01.038Z,27.30
2022-12-22T05:58:27.815Z,26.88
2022-12-22T06:00:58.160Z,25.80
2022-12-22T06:03:25.958Z,26.10
2022-12-22T06:05:53.278Z,24.08
2022-12-22T06:08:20.172Z,24.00
2022-12-22T06:10:46.856Z,23.45
2022-12-22T06:13:13.539Z,25.50
2022-12-22T06:15:40.189Z,24.05
2022-12-22T06:18:06.957Z,24.23
2022-12-22T06:20:33.613Z,23.88
2022-12-22T06:23:00.653Z,24.42
2022-12-22T06:25:27.312Z,24.75
2022-12-22T06:27:53.928Z,24.58
2022-12-22T06:30:20.550Z,26.08
2022-12-22T06:32:47.150Z,23.38
2022-12-22T06:35:14.380Z,24.50
2022-12-22T06:37:41.037Z,24.40
2022-12-22T06:40:09.223Z,25.00
2022-12-22T06:42:54.590Z,25.70
2022-12-22T06:45:21.522Z,25.05
2022-12-22T06:47:48.104Z,26.00
2022-12-22T06:50:14.935Z,26.20
2022-12-22T06:52:41.630Z,26.25
2022-12-22T06:55:11.485Z,26.70
2022-12-22T06:57:38.570Z,28.02
2022-12-22T07:00:05.936Z,28.70
2022-12-22T07:02:32.739Z,28.08
2022-12-22T07:04:59.566Z,29.70
2022-12-22T07:07:26.306Z,29.10
2022-12-22T07:09:53.071Z,31.17
2022-12-22T07:12:19.668Z,29.80
2022-12-22T07:14:46.218Z,30.50
2022-12-22T07:17:12.896Z,31.08
2022-12-22T07:19:39.492Z,30.95
2022-12-22T07:22:06.106Z,34.75
2022-12-22T07:24:33.221Z,31.60
2022-12-22T07:27:00.233Z,32.30
2022-12-22T07:29:26.929Z,32.28
2022-12-22T07:31:53.674Z,31.27
2022-12-22T07:34:20.556Z,32.05
2022-12-22T07:36:47.236Z,31.45
2022-12-22T07:39:13.944Z,33.80
2022-12-22T07:41:59.149Z,33.03
2022-12-22T07:44:25.817Z,31.65
2022-12-22T07:46:52.906Z,31.60
2022-12-22T07:49:38.439Z,32.72
2022-12-22T07:52:05.724Z,33.42
2022-12-22T07:54:41.104Z,32.40
2022-12-22T07:57:08.248Z,34.35
2022-12-22T07:59:35.004Z,32.92
2022-12-22T08:02:01.786Z,33.33
2022-12-22T08:04:28.777Z,34.47
2022-12-22T08:06:55.794Z,35.65
2022-12-22T08:09:23.026Z,33.92
2022-12-22T08:11:50.377Z,35.13
2022-12-22T08:14:17.240Z,46.28
2022-12-22T08:16:44.003Z,36.25
2022-12-22T08:19:10.934Z,36.97
2022-12-22T08:21:37.799Z,35.08
2022-12-22T08:24:04.987Z,34.38
2022-12-22T08:26:38.275Z,36.25
2022-12-22T08:29:15.102Z,37.45
2022-12-22T08:31:42.511Z,33.72
2022-12-22T08:34:12.983Z,35.72
2022-12-22T08:36:43.660Z,35.40
2022-12-22T08:39:12.324Z,35.97
2022-12-22T08:41:51.175Z,36.38
2022-12-22T08:44:23.148Z,36.25
2022-12-22T08:46:51.013Z,37.00
2022-12-22T08:49:18.160Z,36.13
2022-12-22T08:51:45.824Z,35.80
2022-12-22T08:54:13.230Z,34.63
2022-12-22T08:56:40.230Z,35.33
2022-12-22T08:59:08.104Z,35.20
2022-12-22T09:01:38.518Z,32.67
2022-12-22T09:04:07.011Z,35.80
2022-12-22T09:06:40.567Z,33.72
2022-12-22T09:09:09.688Z,32.95
2022-12-22T09:11:36.394Z,33.95
2022-12-22T09:14:03.948Z,34.70
2022-12-22T09:16:32.734Z,34.78
2022-12-22T09:19:00.248Z,33.95
2022-12-22T09:21:27.222Z,33.65
2022-12-22T09:23:55.087Z,33.50
2022-12-22T09:26:23.237Z,32.58
2022-12-22T09:28:51.062Z,33.28
2022-12-22T09:31:19.641Z,32.85
2022-12-22T09:33:46.522Z,34.38
2022-12-22T09:36:16.085Z,33.20
2022-12-22T09:38:43.248Z,31.92
2022-12-22T09:41:15.409Z,30.00
2022-12-22T09:43:42.612Z,31.75
2022-12-22T09:46:23.616Z,29.90
2022-12-22T09:48:52.484Z,30.45
2022-12-22T09:51:24.655Z,29.25
2022-12-22T09:54:02.764Z,27.30
2022-12-22T09:56:30.311Z,27.17
2022-12-22T09:58:58.213Z,27.65
2022-12-22T10:01:52.755Z,26.58
2022-12-22T10:05:04.745Z,26.23
2022-12-22T10:07:40.059Z,24.95
2022-12-22T10:10:07.813Z,25.77
2022-12-22T10:12:34.590Z,25.77
2022-12-22T10:15:01.353Z,25.67
2022-12-22T10:17:33.589Z,24.60
2022-12-22T10:20:07.900Z,21.75
2022-12-22T10:23:00.796Z,22.38
2022-12-22T10:25:45.263Z,20.42
2022-12-22T10:28:23.151Z,19.67
2022-12-22T10:30:50.393Z,19.50
2022-12-22T10:33:18.769Z,19.25
2022-12-22T10:35:57.418Z,18.33
2022-12-22T10:38:29.650Z,17.83
2022-12-22T10:41:02.353Z,16.15
2022-12-22T10:43:37.490Z,15.63
2022-12-22T10:46:05.011Z,15.63
2022-12-22T10:48:36.273Z,14.95
2022-12-22T10:51:06.205Z,16.23
2022-12-22T10:53:44.988Z,15.27
2022-12-22T10:56:31.201Z,14.85
2022-12-22T10:59:18.878Z,15.55
2022-12-22T11:01:46.391Z,15.07
2022-12-22T11:04:27.620Z,15.05
2022-12-22T11:06:58.599Z,15.45
2022-12-22T11:09:35.318Z,16.20
2022-12-22T11:12:13.381Z,15.55
2022-12-22T11:14:46.031Z,15.93
2022-12-22T11:17:50.306Z,16.30
2022-12-22T11:20:22.816Z,16.08
2022-12-22T11:23:15.455Z,15.27
2022-12-22T11:26:20.006Z,14.38
2022-12-22T11:29:24.369Z,15.57
2022-12-22T11:32:14.205Z,14.88
2022-12-22T11:34:59.607Z,15.90
2022-12-22T11:37:50.425Z,14.88
2022-12-22T11:40:33.487Z,14.30
2022-12-22T11:43:25.169Z,14.23
2022-12-22T11:46:12.037Z,13.63
2022-12-22T11:49:14.213Z,13.55
2022-12-22T11:52:07.213Z,13.05
2022-12-22T11:54:56.713Z,12.32
2022-12-22T11:58:00.430Z,11.80
2022-12-22T12:01:04.216Z,11.07
2022-12-22T12:03:55.710Z,12.00
2022-12-22T12:06:28.295Z,11.73
2022-12-22T12:08:54.837Z,11.52
2022-12-22T12:11:39.064Z,12.23
2022-12-22T12:14:31.724Z,12.65
2022-12-22T12:17:36.419Z,12.88
2022-12-22T12:20:22.308Z,11.60
2022-12-22T12:23:27.132Z,12.63
2022-12-22T12:26:12.860Z,11.82
2022-12-22T12:28:48.392Z,11.35
2022-12-22T12:31:25.956Z,10.88
2022-12-22T12:33:56.058Z,9.45
2022-12-22T12:37:00.450Z,9.93
2022-12-22T12:39:37.634Z,8.90
2022-12-22T12:42:36.925Z,9.90
2022-12-22T12:48:49.586Z,8.18
2022-12-22T12:51:50.952Z,7.88
2022-12-22T12:54:38.206Z,6.47
2022-12-22T12:57:12.709Z,7.57
2022-12-22T12:59:42.619Z,6.90
2022-12-22T13:02:28.190Z,6.97
2022-12-22T13:05:13.331Z,7.28
2022-12-22T13:08:08.021Z,6.70
2022-12-22T13:10:38.632Z,6.95
2022-12-22T13:13:05.726Z,6.10
2022-12-22T13:15:38.521Z,6.32
2022-12-22T13:18:26.661Z,6.22
2022-12-22T13:21:26.173Z,5.95
2022-12-22T13:24:24.701Z,5.68
2022-12-22T13:26:57.110Z,6.05
2022-12-22T13:29:46.467Z,5.40
2022-12-22T13:32:29.819Z,4.85
2022-12-22T13:37:51.476Z,5.47
2022-12-22T13:40:21.744Z,5.05
2022-12-22T13:43:02.415Z,5.05
2022-12-22T13:45:39.333Z,5.40
2022-12-22T13:48:15.792Z,5.45
2022-12-22T13:50:49.820Z,5.07
2022-12-22T13:56:34.255Z,6.95
2022-12-22T13:59:02.683Z,5.68
2022-12-22T14:01:30.874Z,6.35
2022-12-22T14:04:11.559Z,5.22
2022-12-22T14:06:40.465Z,4.78
2022-12-22T14:09:10.049Z,5.35
2022-12-22T14:11:36.832Z,5.00
2022-12-22T14:14:10.810Z,4.97
2022-12-22T14:16:45.400Z,5.45
2022-12-22T14:19:15.517Z,5.75
2022-12-22T14:21:48.985Z,5.35
2022-12-22T14:24:24.397Z,6.35
2022-12-22T14:26:53.266Z,5.18
2022-12-22T14:29:25.888Z,6.45
2022-12-22T14:31:56.391Z,6.28
2022-12-22T14:34:32.613Z,5.63
2022-12-22T14:36:59.983Z,6.22
2022-12-22T14:39:30.978Z,5.85
2022-12-22T14:42:00.997Z,5.80
2022-12-22T14:44:42.166Z,6.72
2022-12-22T14:47:12.111Z,6.85
2022-12-22T14:49:47.014Z,7.22
2022-12-22T14:52:33.245Z,6.38
2022-12-22T14:55:00.630Z,6.95
2022-12-22T14:57:37.886Z,6.93
2022-12-22T15:00:07.683Z,6.68
2022-12-22T15:02:40.803Z,7.22
2022-12-22T15:05:27.669Z,6.80
2022-12-22T15:08:06.575Z,7.38
2022-12-22T15:10:41.756Z,10.52
2022-12-22T15:13:18.759Z,7.07
2022-12-22T15:15:45.502Z,10.48
2022-12-22T15:18:14.500Z,9.90
2022-12-22T15:20:41.745Z,7.47
2022-12-22T15:23:18.310Z,7.15
2022-12-22T15:25:45.585Z,9.18
2022-12-22T15:28:12.355Z,7.90
2022-12-22T15:30:39.258Z,10.77
2022-12-22T15:33:15.191Z,8.18
2022-12-22T15:35:42.798Z,7.20
2022-12-22T15:38:19.410Z,7.78
2022-12-22T15:40:46.011Z,6.47
2022-12-22T15:43:36.813Z,7.80
2022-12-22T15:46:01.723Z,8.60
2022-12-22T15:48:31.721Z,8.27
2022-12-22T15:50:59.045Z,7.60
2022-12-22T15:53:25.779Z,7.25
2022-12-22T15:55:54.691Z,7.78
2022-12-22T15:58:28.739Z,7.88
2022-12-22T16:00:55.829Z,7.45
2022-12-22T16:03:22.686Z,8.15
2022-12-22T16:05:49.610Z,6.97
2022-12-22T16:08:19.946Z,8.10
2022-12-22T16:10:46.899Z,7.65
2022-12-22T16:13:15.496Z,8.65
2022-12-22T16:15:43.046Z,7.38
2022-12-22T16:18:13.019Z,8.35
2022-12-22T16:20:42.926Z,6.70
2022-12-22T16:23:22.859Z,7.15
2022-12-22T16:25:55.498Z,7.95
2022-12-22T16:28:25.657Z,7.88
2022-12-22T16:30:52.443Z,7.50
2022-12-22T16:33:19.749Z,7.72
2022-12-22T16:35:46.485Z,7.18
2022-12-22T16:38:18.664Z,7.03
2022-12-22T16:40:49.455Z,7.65
2022-12-22T16:46:14.460Z,7.63
2022-12-22T16:48:47.443Z,7.82
2022-12-22T16:51:40.359Z,7.28
2022-12-22T16:54:07.276Z,7.90
2022-12-22T16:56:34.869Z,7.78
2022-12-22T16:59:04.495Z,7.97
2022-12-22T17:01:38.690Z,7.28
2022-12-22T17:04:13.685Z,8.57
2022-12-22T17:06:41.372Z,7.10
2022-12-22T17:09:27.649Z,6.60
2022-12-22T17:11:55.330Z,7.07
2022-12-22T17:14:42.457Z,13.15
2022-12-22T17:17:17.558Z,6.70
2022-12-22T17:19:44.922Z,8.15
2022-12-22T17:22:30.496Z,6.97
2022-12-22T17:25:01.708Z,7.57
2022-12-22T17:27:41.396Z,6.55
2022-12-22T17:30:18.245Z,6.20
2022-12-22T17:32:45.469Z,7.18
2022-12-22T17:35:13.833Z,6.53
2022-12-22T17:37:41.423Z,6.70
2022-12-22T17:40:11.811Z,6.55
2022-12-22T17:42:38.521Z,8.02
2022-12-22T17:45:12.314Z,7.32
2022-12-22T17:47:42.944Z,6.47
2022-12-22T17:50:21.045Z,7.32
2022-12-22T17:52:49.050Z,8.63
2022-12-22T17:56:05.856Z,8.43
2022-12-22T17:58:16.923Z,7.63
2022-12-22T18:00:44.269Z,8.20
2022-12-22T18:03:14.005Z,7.75
2022-12-22T18:05:44.380Z,8.45
2022-12-22T18:08:20.713Z,7.57
2022-12-22T18:10:48.394Z,8.40
2022-12-22T18:13:25.165Z,7.38
2022-12-22T18:15:53.173Z,7.35
2022-12-22T18:18:21.590Z,7.60
2022-12-22T18:21:07.354Z,7.57
2022-12-22T18:23:36.561Z,8.95
2022-12-22T18:26:05.963Z,8.63
2022-12-22T18:28:32.648Z,8.35
2022-12-22T18:30:59.346Z,9.32
2022-12-22T18:33:26.137Z,9.27
2022-12-22T18:35:52.925Z,9.82
2022-12-22T18:38:32.296Z,10.20
2022-12-22T18:40:59.426Z,10.77
2022-12-22T18:43:26.429Z,10.18
2022-12-22T18:45:53.089Z,14.63
2022-12-22T18:48:19.750Z,11.63
2022-12-22T18:50:46.415Z,12.43
2022-12-22T18:53:26.707Z,11.70
2022-12-22T18:55:54.085Z,11.68
2022-12-22T18:58:20.866Z,11.68
2022-12-22T19:00:48.245Z,11.85
2022-12-22T19:03:28.967Z,12.90
2022-12-22T19:05:55.997Z,13.32
2022-12-22T19:08:26.045Z,12.18
2022-12-22T19:11:03.631Z,11.82
2022-12-22T19:13:32.464Z,12.25
2022-12-22T19:15:59.703Z,14.07
2022-12-22T19:18:27.730Z,11.77
2022-12-22T19:20:55.931Z,12.73
2022-12-22T19:23:24.911Z,12.65
2022-12-22T19:26:08.436Z,11.93
2022-12-22T19:28:44.597Z,12.50
2022-12-22T19:31:21.841Z,12.20
2022-12-22T19:33:49.205Z,12.95
2022-12-22T19:36:19.637Z,12.52
2022-12-22T19:38:50.525Z,12.65
2022-12-22T19:41:33.479Z,19.75
2022-12-22T19:44:00.938Z,21.05
2022-12-22T19:46:32.497Z,13.95
2022-12-22T19:48:59.557Z,20.95
2022-12-22T19:51:26.258Z,19.48
2022-12-22T19:53:52.939Z,12.90
2022-12-22T19:56:31.893Z,14.10
2022-12-22T19:59:00.858Z,13.30
2022-12-22T20:01:27.639Z,14.15
2022-12-22T20:03:55.889Z,15.23
2022-12-22T20:06:22.683Z,14.00
2022-12-22T20:08:49.413Z,15.18
2022-12-22T20:11:19.698Z,15.43
2022-12-22T20:13:47.239Z,14.55
2022-12-22T20:16:16.423Z,15.50
2022-12-22T20:18:44.407Z,15.93
2022-12-22T20:21:37.563Z,16.17
2022-12-22T20:24:05.417Z,15.90
2022-12-22T20:26:32.472Z,17.02
2022-12-22T20:28:59.198Z,16.58
2022-12-22T20:31:26.308Z,16.83
2022-12-22T20:33:54.976Z,21.13
2022-12-22T20:36:26.523Z,17.23
2022-12-22T20:38:55.107Z,17.23
2022-12-22T20:41:22.270Z,17.15
2022-12-22T20:43:49.608Z,18.48
2022-12-22T20:46:26.898Z,17.92
2022-12-22T20:48:59.568Z,19.10
2022-12-22T20:51:29.485Z,19.33
2022-12-22T20:54:00.821Z,18.58
2022-12-22T20:59:22.646Z,19.60
2022-12-22T21:01:51.719Z,18.63
2022-12-22T21:04:18.930Z,20.48
2022-12-22T21:06:56.601Z,19.70
2022-12-22T21:09:23.954Z,20.20
2022-12-22T21:11:50.552Z,18.83
2022-12-22T21:14:17.460Z,21.33
2022-12-22T21:16:44.445Z,21.52
2022-12-22T21:19:18.682Z,21.30
2022-12-22T21:21:45.611Z,25.75
2022-12-22T21:24:12.253Z,19.95
2022-12-22T21:26:52.476Z,19.58
2022-12-22T21:29:22.191Z,19.48
2022-12-22T21:31:48.889Z,19.08
2022-12-22T21:34:15.674Z,19.52
2022-12-22T21:36:45.063Z,19.77
2022-12-22T21:39:31.335Z,20.02
2022-12-22T21:42:00.725Z,20.13
2022-12-22T21:44:29.028Z,18.83
2022-12-22T21:46:56.962Z,19.00
2022-12-22T21:49:25.996Z,32.03
2022-12-22T21:51:53.584Z,25.30
2022-12-22T21:54:22.020Z,35.85
2022-12-22T21:56:57.761Z,27.33
2022-12-22T21:59:24.400Z,24.67
2022-12-22T22:01:55.580Z,21.95
2022-12-22T22:04:23.021Z,22.10
2022-12-22T22:06:49.729Z,22.85
2022-12-22T22:09:16.401Z,22.63
2022-12-22T22:12:01.926Z,21.13
2022-12-22T22:14:28.616Z,21.70
2022-12-22T22:16:55.250Z,22.65
2022-12-22T22:19:22.009Z,20.05
2022-12-22T22:21:48.750Z,22.38
2022-12-22T22:24:15.478Z,20.75
2022-12-22T22:26:45.677Z,21.65
2022-12-22T22:29:12.423Z,20.23
2022-12-22T22:31:40.778Z,21.90
2022-12-22T22:34:07.487Z,20.30
2022-12-22T22:36:34.187Z,21.42
2022-12-22T22:39:00.748Z,22.20
2022-12-22T22:41:29.231Z,22.52
2022-12-22T22:43:55.963Z,20.85
2022-12-22T22:46:22.724Z,22.63
2022-12-22T22:48:49.428Z,22.90
2022-12-22T22:51:16.098Z,21.25
2022-12-22T22:53:42.666Z,22.63
2022-12-22T22:56:09.353Z,23.15
2022-12-22T22:58:35.913Z,22.95
2022-12-22T23:01:10.364Z,24.13
2022-12-22T23:03:37.965Z,24.10
2022-12-22T23:06:10.437Z,23.45
2022-12-22T23:08:37.249Z,24.92
2022-12-22T23:11:04.795Z,22.45
2022-12-22T23:13:31.719Z,24.23
2022-12-22T23:16:01.082Z,22.50
2022-12-22T23:18:28.833Z,22.83
2022-12-22T23:21:02.857Z,22.50
2022-12-22T23:23:30.196Z,21.55
2022-12-22T23:25:57.604Z,23.30
2022-12-22T23:28:24.637Z,22.30
2022-12-22T23:30:52.771Z,22.88
2022-12-22T23:33:20.609Z,23.20
2022-12-22T23:35:49.482Z,22.02
2022-12-22T23:38:17.770Z,22.98
2022-12-22T23:40:53.687Z,22.60
2022-12-22T23:43:21.725Z,21.38
2022-12-22T23:45:48.604Z,22.25
2022-12-22T23:48:15.312Z,21.75
2022-12-22T23:50:45.061Z,22.40
2022-12-22T23:53:11.773Z,22.02
2022-12-22T23:55:42.620Z,21.63
2022-12-22T23:58:09.244Z,21.35
